Hannibal, Wisconsin
Current Conditions -  °F | °C
As of 6:35 PM on Thursday 18 Dec 2014 (Local Time) from KRCX Reporting Station
Overcast Overcast  
Wind Chill: 23°   Ceiling: 800
Heat Index: 23°   Visibility: 10mi
Dew Point: 20°   Wind: 3mph
Humidity: 89%   Direction: 200°SSW
Pressure: 30.26"   Gusts: NA
Location:  45.25°N, 90.79°W
Report Text: KRCX 190035Z AUTO 20003KT 10SM OVC008 M05/M06 A3026 RMK AO2 T10481064
Loading
Personal Weather Stations






























Interactive Weather Map New forecast layout! Learn more

10-Day Weather Forecast

Advertisements
Track Severe Weather on mobile